createdAt,value
2018-07-07T00:00:05.617Z,13.95
2018-07-07T00:02:36.941Z,14.43
2018-07-07T00:05:08.303Z,13.98
2018-07-07T00:07:39.658Z,15.58
2018-07-07T00:10:10.955Z,14.85
2018-07-07T00:12:41.903Z,14.85
2018-07-07T00:15:18.334Z,15.58
2018-07-07T00:17:49.324Z,15.68
2018-07-07T00:20:20.148Z,13.90
2018-07-07T00:22:50.644Z,14.70
2018-07-07T00:25:22.027Z,14.33
2018-07-07T00:27:52.588Z,13.90
2018-07-07T00:30:23.041Z,15.78
2018-07-07T00:32:53.515Z,14.63
2018-07-07T00:35:23.962Z,15.75
2018-07-07T00:37:54.523Z,14.35
2018-07-07T00:40:25.028Z,14.13
2018-07-07T00:42:55.521Z,13.85
2018-07-07T00:45:26.090Z,15.32
2018-07-07T00:47:56.586Z,14.63
2018-07-07T00:50:27.072Z,15.60
2018-07-07T00:52:58.562Z,14.73
2018-07-07T00:55:29.442Z,14.55
2018-07-07T00:57:59.866Z,14.78
2018-07-07T01:01:04.411Z,14.43
2018-07-07T01:03:34.804Z,15.50
2018-07-07T01:06:05.334Z,14.10
2018-07-07T01:08:35.820Z,14.18
2018-07-07T01:11:06.276Z,14.73
2018-07-07T01:13:36.762Z,14.38
2018-07-07T01:16:07.249Z,14.70
2018-07-07T01:18:38.416Z,13.72
2018-07-07T01:21:08.843Z,15.25
2018-07-07T01:23:39.289Z,14.03
2018-07-07T01:26:10.569Z,15.20
2018-07-07T01:28:41.037Z,15.53
2018-07-07T01:31:11.872Z,14.07
2018-07-07T01:33:42.297Z,14.65
2018-07-07T01:36:12.720Z,15.63
2018-07-07T01:38:43.091Z,16.15
2018-07-07T01:41:13.663Z,14.68
2018-07-07T01:43:44.185Z,14.28
2018-07-07T01:46:14.669Z,14.60
2018-07-07T01:48:45.092Z,14.30
2018-07-07T01:51:15.562Z,15.90
2018-07-07T01:53:46.072Z,15.13
2018-07-07T01:56:16.592Z,16.15
2018-07-07T01:58:47.083Z,15.70
2018-07-07T02:01:17.567Z,14.30
2018-07-07T02:03:47.981Z,15.60
2018-07-07T02:06:18.369Z,15.28
2018-07-07T02:08:48.894Z,16.70
2018-07-07T02:11:19.468Z,15.38
2018-07-07T02:13:50.968Z,16.30
2018-07-07T02:16:21.460Z,16.57
2018-07-07T02:18:51.887Z,17.20
2018-07-07T02:21:22.296Z,16.25
2018-07-07T02:23:52.757Z,17.92
2018-07-07T02:26:23.384Z,15.13
2018-07-07T02:28:54.146Z,16.75
2018-07-07T02:31:24.676Z,16.62
2018-07-07T02:33:55.122Z,16.10
2018-07-07T02:36:25.580Z,16.52
2018-07-07T02:38:56.017Z,17.65
2018-07-07T02:41:26.623Z,16.80
2018-07-07T02:43:57.109Z,14.40
2018-07-07T02:46:27.598Z,16.23
2018-07-07T02:48:57.999Z,16.73
2018-07-07T02:51:28.537Z,17.07
2018-07-07T02:53:59.581Z,17.02
2018-07-07T02:56:30.033Z,17.42
2018-07-07T02:59:00.577Z,16.95
2018-07-07T03:01:31.077Z,17.07
2018-07-07T03:04:01.628Z,16.10
2018-07-07T03:06:32.157Z,17.67
2018-07-07T03:09:02.767Z,18.32
2018-07-07T03:11:33.937Z,17.65
2018-07-07T03:14:05.049Z,18.25
2018-07-07T03:16:35.491Z,18.10
2018-07-07T03:19:06.149Z,18.15
2018-07-07T03:21:36.593Z,17.10
2018-07-07T03:24:07.152Z,17.98
2018-07-07T03:26:37.546Z,17.27
2018-07-07T03:29:08.021Z,17.70
2018-07-07T03:31:38.448Z,18.90
2018-07-07T03:34:08.995Z,19.02
2018-07-07T03:36:39.645Z,18.07
2018-07-07T03:39:10.274Z,17.82
2018-07-07T03:41:40.830Z,18.40
2018-07-07T03:44:11.483Z,18.32
2018-07-07T03:46:42.012Z,17.65
2018-07-07T03:49:13.428Z,18.23
2018-07-07T03:51:43.969Z,17.92
2018-07-07T03:54:14.420Z,19.02
2018-07-07T03:56:44.979Z,18.70
2018-07-07T03:59:15.509Z,17.92
2018-07-07T04:01:46.094Z,17.85
2018-07-07T04:04:16.661Z,18.80
2018-07-07T04:06:47.171Z,17.65
2018-07-07T04:09:17.575Z,17.87
2018-07-07T04:11:47.891Z,17.90
2018-07-07T04:14:18.725Z,19.05
2018-07-07T04:16:49.201Z,17.02
2018-07-07T04:19:19.658Z,17.67
2018-07-07T04:21:50.197Z,19.27
2018-07-07T04:24:20.708Z,18.85
2018-07-07T04:26:51.572Z,18.00
2018-07-07T04:29:22.108Z,18.07
2018-07-07T04:31:52.780Z,18.30
2018-07-07T04:34:23.351Z,18.10
2018-07-07T04:36:53.890Z,18.60
2018-07-07T04:39:24.390Z,17.52
2018-07-07T04:41:54.930Z,18.90
2018-07-07T04:44:25.505Z,17.75
2018-07-07T04:46:56.053Z,18.70
2018-07-07T04:49:26.615Z,18.20
2018-07-07T04:51:57.111Z,17.60
2018-07-07T04:54:27.591Z,19.12
2018-07-07T04:56:58.061Z,19.02
2018-07-07T04:59:28.532Z,15.88
2018-07-07T05:01:58.987Z,19.30
2018-07-07T05:04:29.499Z,16.42
2018-07-07T05:06:59.952Z,16.80
2018-07-07T05:09:30.453Z,15.75
2018-07-07T05:12:01.162Z,17.85
2018-07-07T05:14:31.755Z,16.42
2018-07-07T05:17:02.340Z,17.70
2018-07-07T05:19:32.773Z,17.48
2018-07-07T05:22:03.803Z,18.95
2018-07-07T05:24:34.268Z,17.32
2018-07-07T05:27:04.846Z,14.85
2018-07-07T05:29:35.337Z,15.35
2018-07-07T05:32:05.929Z,14.30
2018-07-07T05:34:36.371Z,15.25
2018-07-07T05:37:07.710Z,14.60
2018-07-07T05:39:38.216Z,15.03
2018-07-07T05:42:08.797Z,13.78
2018-07-07T05:44:39.318Z,13.78
2018-07-07T05:47:09.809Z,14.75
2018-07-07T05:49:40.336Z,13.13
2018-07-07T05:52:10.817Z,13.68
2018-07-07T05:54:41.281Z,13.45
2018-07-07T05:57:11.785Z,13.30
2018-07-07T05:59:42.377Z,12.95
2018-07-07T06:02:12.910Z,13.28
2018-07-07T06:04:43.521Z,13.75
2018-07-07T06:07:14.129Z,12.53
2018-07-07T06:09:44.665Z,13.10
2018-07-07T06:12:15.165Z,14.03
2018-07-07T06:14:45.584Z,12.23
2018-07-07T06:17:16.033Z,14.03
2018-07-07T06:19:46.481Z,13.72
2018-07-07T06:22:16.922Z,14.63
2018-07-07T06:24:47.405Z,14.00
2018-07-07T06:27:17.999Z,15.72
2018-07-07T06:29:48.425Z,14.25
2018-07-07T06:32:18.921Z,15.00
2018-07-07T06:34:49.359Z,14.50
2018-07-07T06:37:19.833Z,15.32
2018-07-07T06:39:50.202Z,13.80
2018-07-07T06:42:20.930Z,14.18
2018-07-07T06:44:51.406Z,14.58
2018-07-07T06:47:22.109Z,14.40
2018-07-07T06:49:52.514Z,13.88
2018-07-07T06:52:22.983Z,15.03
2018-07-07T06:54:53.477Z,15.18
2018-07-07T06:57:24.551Z,13.95
2018-07-07T06:59:54.985Z,13.50
2018-07-07T07:02:25.453Z,14.58
2018-07-07T07:04:55.955Z,14.50
2018-07-07T07:07:26.410Z,14.05
2018-07-07T07:09:56.907Z,14.05
2018-07-07T07:12:27.485Z,15.05
2018-07-07T07:14:57.923Z,14.18
2018-07-07T07:17:28.436Z,14.18
2018-07-07T07:19:58.967Z,13.88
2018-07-07T07:22:29.434Z,13.93
2018-07-07T07:25:00.444Z,16.17
2018-07-07T07:27:31.057Z,15.18
2018-07-07T07:30:01.486Z,15.53
2018-07-07T07:32:31.973Z,15.58
2018-07-07T07:35:02.631Z,17.37
2018-07-07T07:37:33.245Z,15.50
2018-07-07T07:40:03.871Z,15.75
2018-07-07T07:42:34.401Z,16.00
2018-07-07T07:45:04.805Z,16.05
2018-07-07T07:47:35.273Z,16.20
2018-07-07T07:50:05.757Z,15.93
2018-07-07T07:52:36.353Z,16.30
2018-07-07T07:55:06.808Z,16.55
2018-07-07T07:57:37.280Z,15.05
2018-07-07T08:00:07.750Z,15.45
2018-07-07T08:02:38.286Z,15.55
2018-07-07T08:05:08.789Z,15.50
2018-07-07T08:07:40.087Z,16.00
2018-07-07T08:10:10.573Z,14.63
2018-07-07T08:12:41.081Z,15.95
2018-07-07T08:15:11.515Z,15.25
2018-07-07T08:17:42.019Z,14.30
2018-07-07T08:20:12.592Z,14.28
2018-07-07T08:22:43.114Z,14.65
2018-07-07T08:25:13.534Z,13.98
2018-07-07T08:27:43.944Z,15.50
2018-07-07T08:30:14.595Z,13.70
2018-07-07T08:32:45.083Z,12.78
2018-07-07T08:35:15.576Z,12.63
2018-07-07T08:37:46.059Z,12.03
2018-07-07T08:40:16.572Z,10.45
2018-07-07T08:42:47.021Z,10.23
2018-07-07T08:45:17.855Z,10.15
2018-07-07T08:47:48.278Z,9.20
2018-07-07T08:50:18.413Z,10.28
2018-07-07T08:52:48.788Z,10.00
2018-07-07T08:55:19.120Z,8.45
2018-07-07T08:57:49.636Z,8.30
2018-07-07T09:00:20.036Z,9.60
2018-07-07T09:02:51.098Z,9.90
2018-07-07T09:05:21.486Z,9.88
2018-07-07T09:07:52.055Z,9.95
2018-07-07T09:10:22.404Z,10.90
2018-07-07T09:12:52.804Z,9.43
2018-07-07T09:15:23.256Z,10.72
2018-07-07T09:17:53.667Z,9.35
2018-07-07T09:20:24.148Z,10.30
2018-07-07T09:22:55.250Z,10.95
2018-07-07T09:25:25.742Z,10.75
2018-07-07T09:27:56.248Z,10.75
2018-07-07T09:30:26.833Z,10.45
2018-07-07T09:32:57.234Z,9.95
2018-07-07T09:35:27.702Z,10.60
2018-07-07T09:37:58.061Z,10.98
2018-07-07T09:40:28.493Z,12.90
2018-07-07T09:42:59.634Z,11.55
2018-07-07T09:45:30.056Z,11.22
2018-07-07T09:48:00.444Z,11.50
2018-07-07T09:50:30.811Z,11.33
2018-07-07T09:53:01.223Z,11.88
2018-07-07T09:55:31.572Z,13.83
2018-07-07T09:58:01.997Z,12.43
2018-07-07T10:00:37.469Z,12.45
2018-07-07T10:03:08.060Z,12.13
2018-07-07T10:05:38.869Z,12.70
2018-07-07T10:08:09.848Z,10.30
2018-07-07T10:10:40.376Z,11.30
2018-07-07T10:13:10.804Z,12.00
2018-07-07T10:15:41.231Z,11.25
2018-07-07T10:18:11.649Z,10.40
2018-07-07T10:20:42.207Z,11.60
2018-07-07T10:23:12.581Z,9.63
2018-07-07T10:25:43.010Z,12.28
2018-07-07T10:28:13.499Z,12.05
2018-07-07T10:30:43.952Z,12.05
2018-07-07T10:33:14.328Z,13.10
2018-07-07T10:35:44.757Z,13.98
2018-07-07T10:38:15.306Z,17.85
2018-07-07T10:40:45.670Z,13.03
2018-07-07T10:43:16.115Z,12.47
2018-07-07T10:45:46.666Z,12.90
2018-07-07T10:48:17.216Z,13.62
2018-07-07T10:50:47.895Z,12.68
2018-07-07T10:53:18.364Z,13.53
2018-07-07T10:55:48.837Z,13.05
2018-07-07T10:58:19.809Z,12.20
2018-07-07T11:00:50.289Z,11.53
2018-07-07T11:03:20.797Z,11.80
2018-07-07T11:05:51.218Z,12.55
2018-07-07T11:08:21.705Z,10.72
2018-07-07T11:10:52.298Z,11.75
2018-07-07T11:13:22.794Z,12.88
2018-07-07T11:15:53.199Z,12.07
2018-07-07T11:18:23.663Z,11.15
2018-07-07T11:20:54.632Z,18.82
2018-07-07T11:23:25.140Z,12.68
2018-07-07T11:25:55.582Z,12.73
2018-07-07T11:28:26.060Z,12.85
2018-07-07T11:30:56.527Z,12.55
2018-07-07T11:33:27.006Z,11.50
2018-07-07T11:35:57.468Z,10.50
2018-07-07T11:38:27.927Z,10.03
2018-07-07T11:40:58.447Z,9.60
2018-07-07T11:43:29.367Z,10.10
2018-07-07T11:45:59.820Z,12.07
2018-07-07T11:48:30.300Z,11.93
2018-07-07T11:51:00.671Z,11.70
2018-07-07T11:53:31.188Z,10.65
2018-07-07T11:56:01.576Z,11.30
2018-07-07T11:58:32.068Z,11.10
2018-07-07T12:01:02.548Z,10.45
2018-07-07T12:03:32.999Z,12.10
2018-07-07T12:06:03.414Z,10.63
2018-07-07T12:08:33.920Z,11.53
2018-07-07T12:11:04.471Z,11.15
2018-07-07T12:13:35.128Z,9.85
2018-07-07T12:16:05.633Z,12.10
2018-07-07T12:18:36.050Z,11.22
2018-07-07T12:21:06.620Z,10.43
2018-07-07T12:23:37.095Z,11.53
2018-07-07T12:26:07.648Z,11.70
2018-07-07T12:28:38.067Z,11.43
2018-07-07T12:31:09.042Z,10.25
2018-07-07T12:33:39.448Z,10.35
2018-07-07T12:36:09.856Z,9.55
2018-07-07T12:38:40.370Z,10.55
2018-07-07T12:41:10.556Z,9.93
2018-07-07T12:43:41.012Z,12.00
2018-07-07T12:46:11.472Z,11.43
2018-07-07T12:48:41.908Z,10.50
2018-07-07T12:51:12.291Z,11.35
2018-07-07T12:53:42.854Z,10.38
2018-07-07T12:56:13.413Z,9.60
2018-07-07T12:58:43.889Z,11.22
2018-07-07T13:01:14.384Z,11.38
2018-07-07T13:03:44.791Z,10.85
2018-07-07T13:06:15.300Z,11.00
2018-07-07T13:08:45.805Z,11.53
2018-07-07T13:11:16.161Z,11.57
2018-07-07T13:13:46.596Z,11.43
2018-07-07T13:16:16.977Z,10.85
2018-07-07T13:18:47.432Z,10.40
2018-07-07T13:21:18.074Z,10.28
2018-07-07T13:23:48.606Z,10.63
2018-07-07T13:26:19.110Z,9.78
2018-07-07T13:28:49.515Z,10.00
2018-07-07T13:31:19.654Z,10.93
2018-07-07T13:33:50.026Z,10.10
2018-07-07T13:36:21.838Z,11.60
2018-07-07T13:38:52.373Z,10.85
2018-07-07T13:41:22.745Z,9.73
2018-07-07T13:43:53.186Z,10.38
2018-07-07T13:46:23.643Z,11.65
2018-07-07T13:48:55.007Z,10.35
2018-07-07T13:51:25.445Z,10.40
2018-07-07T13:53:55.965Z,11.60
2018-07-07T13:56:26.337Z,10.50
2018-07-07T13:58:56.761Z,10.13
2018-07-07T14:01:28.147Z,10.72
2018-07-07T14:03:58.663Z,9.88
2018-07-07T14:06:29.134Z,8.78
2018-07-07T14:08:59.601Z,9.30
2018-07-07T14:11:30.021Z,10.00
2018-07-07T14:14:00.506Z,10.25
2018-07-07T14:16:31.881Z,10.80
2018-07-07T14:19:02.270Z,10.28
2018-07-07T14:21:32.849Z,9.68
2018-07-07T14:24:03.284Z,8.95
2018-07-07T14:26:33.718Z,9.83
2018-07-07T14:29:04.264Z,9.90
2018-07-07T14:31:34.787Z,11.50
2018-07-07T14:34:05.158Z,10.38
2018-07-07T14:36:35.666Z,10.00
2018-07-07T14:39:07.437Z,10.13
2018-07-07T14:41:38.903Z,9.95
2018-07-07T14:44:09.421Z,10.15
2018-07-07T14:46:40.019Z,9.78
2018-07-07T14:49:10.342Z,9.68
2018-07-07T14:51:40.812Z,9.65
2018-07-07T14:54:11.266Z,9.93
2018-07-07T14:56:42.317Z,10.38
2018-07-07T14:59:12.761Z,9.83
2018-07-07T15:01:43.609Z,10.23
2018-07-07T15:04:14.227Z,9.58
2018-07-07T15:06:44.960Z,10.10
2018-07-07T15:09:16.491Z,10.78
2018-07-07T15:11:47.339Z,9.78
2018-07-07T15:14:18.143Z,9.68
2018-07-07T15:16:48.904Z,9.80
2018-07-07T15:19:19.796Z,9.03
2018-07-07T15:21:50.972Z,9.40
2018-07-07T15:24:21.982Z,9.00
2018-07-07T15:26:53.196Z,9.10
2018-07-07T15:29:23.800Z,8.63
2018-07-07T15:31:55.007Z,8.45
2018-07-07T15:34:25.845Z,8.45
2018-07-07T15:36:56.315Z,8.40
2018-07-07T15:39:26.857Z,9.23
2018-07-07T15:41:59.071Z,9.27
2018-07-07T15:44:30.155Z,9.48
2018-07-07T15:47:00.815Z,9.13
2018-07-07T15:49:31.704Z,9.07
2018-07-07T15:52:02.407Z,9.03
2018-07-07T15:54:32.947Z,9.63
2018-07-07T15:57:03.440Z,8.68
2018-07-07T15:59:34.619Z,10.20
2018-07-07T16:02:05.252Z,8.20
2018-07-07T16:04:35.815Z,8.83
2018-07-07T16:07:06.766Z,8.43
2018-07-07T16:09:37.329Z,9.53
2018-07-07T16:12:07.847Z,9.97
2018-07-07T16:14:39.181Z,8.50
2018-07-07T16:17:10.473Z,9.63
2018-07-07T16:19:41.179Z,8.40
2018-07-07T16:22:11.871Z,8.47
2018-07-07T16:24:42.681Z,9.10
2018-07-07T16:27:13.281Z,9.30
2018-07-07T16:29:44.165Z,8.60
2018-07-07T16:32:14.754Z,8.45
2018-07-07T16:34:45.380Z,8.40
2018-07-07T16:37:16.009Z,8.80
2018-07-07T16:39:46.764Z,8.57
2018-07-07T16:42:17.320Z,8.95
2018-07-07T16:44:47.881Z,9.33
2018-07-07T16:47:18.562Z,9.15
2018-07-07T16:49:49.277Z,9.48
2018-07-07T16:52:19.830Z,8.45
2018-07-07T16:54:53.927Z,8.68
2018-07-07T16:57:25.119Z,9.25
2018-07-07T16:59:55.876Z,10.68
2018-07-07T17:02:26.684Z,9.70
2018-07-07T17:04:57.252Z,8.33
2018-07-07T17:07:28.234Z,8.58
2018-07-07T17:09:59.130Z,9.20
2018-07-07T17:12:29.684Z,9.78
2018-07-07T17:15:01.447Z,12.28
2018-07-07T17:17:32.441Z,10.35
2018-07-07T17:20:03.023Z,10.20
2018-07-07T17:22:33.885Z,9.85
2018-07-07T17:25:04.893Z,11.35
2018-07-07T17:27:35.678Z,12.18
2018-07-07T17:30:08.527Z,10.97
2018-07-07T17:32:39.340Z,10.20
2018-07-07T17:35:10.483Z,10.55
2018-07-07T17:37:42.470Z,10.40
2018-07-07T17:40:13.380Z,10.35
2018-07-07T17:42:44.588Z,10.82
2018-07-07T17:45:16.118Z,9.63
2018-07-07T17:47:47.074Z,11.53
2018-07-07T17:50:17.629Z,10.07
2018-07-07T17:52:48.504Z,11.15
2018-07-07T17:55:19.191Z,9.70
2018-07-07T17:57:49.850Z,10.93
2018-07-07T18:00:24.768Z,11.35
2018-07-07T18:02:55.503Z,11.60
2018-07-07T18:05:26.081Z,10.78
2018-07-07T18:07:56.729Z,11.28
2018-07-07T18:10:27.355Z,10.13
2018-07-07T18:12:58.005Z,11.00
2018-07-07T18:15:28.681Z,10.75
2018-07-07T18:17:59.195Z,12.05
2018-07-07T18:20:29.787Z,11.10
2018-07-07T18:23:00.890Z,10.93
2018-07-07T18:25:31.545Z,12.35
2018-07-07T18:28:02.139Z,11.95
2018-07-07T18:30:32.623Z,12.18
2018-07-07T18:33:03.203Z,10.00
2018-07-07T18:35:33.888Z,12.07
2018-07-07T18:38:04.594Z,11.85
2018-07-07T18:40:35.337Z,10.93
2018-07-07T18:43:06.058Z,11.05
2018-07-07T18:45:37.598Z,10.60
2018-07-07T18:48:08.320Z,11.43
2018-07-07T18:50:38.978Z,11.05
2018-07-07T18:53:09.558Z,11.38
2018-07-07T18:55:40.133Z,11.43
2018-07-07T18:58:10.803Z,10.95
2018-07-07T19:00:41.473Z,11.80
2018-07-07T19:03:13.867Z,12.20
2018-07-07T19:05:44.419Z,11.50
2018-07-07T19:08:15.049Z,11.28
2018-07-07T19:10:45.875Z,11.50
2018-07-07T19:13:16.455Z,11.00
2018-07-07T19:15:48.270Z,11.08
2018-07-07T19:18:19.549Z,11.03
2018-07-07T19:20:55.236Z,10.98
2018-07-07T19:23:31.336Z,11.28
2018-07-07T19:26:06.903Z,11.85
2018-07-07T19:28:37.557Z,10.72
2018-07-07T19:31:07.740Z,10.25
2018-07-07T19:33:43.388Z,11.55
2018-07-07T19:36:19.051Z,11.20
2018-07-07T19:38:49.753Z,12.50
2018-07-07T19:41:20.812Z,12.98
2018-07-07T19:43:52.437Z,12.93
2018-07-07T19:46:23.566Z,13.68
2018-07-07T19:48:55.397Z,15.00
2018-07-07T19:51:26.168Z,13.78
2018-07-07T19:53:56.761Z,12.45
2018-07-07T19:56:27.555Z,11.25
2018-07-07T19:58:58.083Z,12.00
2018-07-07T20:01:29.908Z,11.83
2018-07-07T20:04:00.596Z,13.72
2018-07-07T20:06:32.102Z,12.37
2018-07-07T20:09:02.860Z,12.50
2018-07-07T20:11:33.541Z,13.10
2018-07-07T20:14:04.164Z,11.68
2018-07-07T20:17:07.612Z,11.70
2018-07-07T20:20:57.801Z,12.43
2018-07-07T20:23:30.625Z,11.70
2018-07-07T20:26:01.402Z,12.90
2018-07-07T20:28:37.302Z,13.10
2018-07-07T20:31:08.079Z,13.10
2018-07-07T20:33:38.967Z,12.33
2018-07-07T20:36:09.593Z,14.50
2018-07-07T20:38:40.118Z,15.20
2018-07-07T20:41:10.726Z,15.63
2018-07-07T20:43:41.403Z,14.83
2018-07-07T20:46:12.066Z,15.18
2018-07-07T20:48:42.809Z,12.82
2018-07-07T20:51:13.319Z,14.87
2018-07-07T20:53:43.788Z,15.13
2018-07-07T20:56:14.328Z,13.65
2018-07-07T20:58:44.897Z,14.40
2018-07-07T21:01:15.464Z,15.03
2018-07-07T21:03:46.017Z,13.58
2018-07-07T21:06:16.328Z,15.25
2018-07-07T21:08:47.514Z,14.13
2018-07-07T21:11:18.091Z,14.45
2018-07-07T21:13:48.612Z,13.55
2018-07-07T21:16:19.282Z,12.88
2018-07-07T21:18:49.790Z,14.50
2018-07-07T21:21:20.302Z,14.40
2018-07-07T21:23:51.027Z,16.32
2018-07-07T21:26:21.552Z,16.55
2018-07-07T21:28:52.054Z,16.93
2018-07-07T21:31:22.458Z,14.70
2018-07-07T21:33:52.697Z,15.13
2018-07-07T21:36:23.052Z,15.15
2018-07-07T21:38:53.620Z,16.12
2018-07-07T21:41:24.083Z,15.55
2018-07-07T21:43:54.617Z,14.47
2018-07-07T21:46:25.066Z,15.20
2018-07-07T21:48:55.682Z,15.70
2018-07-07T21:51:26.096Z,17.98
2018-07-07T21:53:56.645Z,16.35
2018-07-07T21:56:27.027Z,17.60
2018-07-07T21:59:02.643Z,17.02
2018-07-07T22:01:55.830Z,17.90
2018-07-07T22:04:33.998Z,16.77
2018-07-07T22:07:13.928Z,19.05
2018-07-07T22:09:44.621Z,18.60
2018-07-07T22:12:15.027Z,17.92
2018-07-07T22:14:45.553Z,18.35
2018-07-07T22:17:15.946Z,18.95
2018-07-07T22:19:46.432Z,17.50
2018-07-07T22:22:16.825Z,18.05
2018-07-07T22:24:47.286Z,18.05
2018-07-07T22:27:17.761Z,16.70
2018-07-07T22:29:48.268Z,17.45
2018-07-07T22:32:21.723Z,18.12
2018-07-07T22:34:52.563Z,17.87
2018-07-07T22:37:23.026Z,18.82
2018-07-07T22:39:53.496Z,18.30
2018-07-07T22:42:23.967Z,17.15
2018-07-07T22:44:54.474Z,16.97
2018-07-07T22:47:24.952Z,18.23
2018-07-07T22:49:55.343Z,18.65
2018-07-07T22:52:25.896Z,16.82
2018-07-07T22:54:56.076Z,16.97
2018-07-07T22:57:26.431Z,18.55
2018-07-07T22:59:56.962Z,17.60
2018-07-07T23:02:27.360Z,16.12
2018-07-07T23:04:57.969Z,15.95
2018-07-07T23:07:28.368Z,13.70
2018-07-07T23:09:58.844Z,13.18
2018-07-07T23:12:29.378Z,13.22
2018-07-07T23:14:59.845Z,13.88
2018-07-07T23:17:30.270Z,12.45
2018-07-07T23:20:00.755Z,13.40
2018-07-07T23:23:03.516Z,13.22
2018-07-07T23:25:33.924Z,14.10
2018-07-07T23:28:04.289Z,13.93
2018-07-07T23:30:34.821Z,14.15
2018-07-07T23:33:05.229Z,13.40
2018-07-07T23:35:35.822Z,14.30
2018-07-07T23:38:06.287Z,14.25
2018-07-07T23:40:36.729Z,13.03
2018-07-07T23:43:07.168Z,12.78
2018-07-07T23:45:37.590Z,12.90
2018-07-07T23:48:08.041Z,14.15
2018-07-07T23:50:38.508Z,12.70
2018-07-07T23:53:08.993Z,13.45
2018-07-07T23:55:39.514Z,12.47
2018-07-07T23:58:09.970Z,13.48
